sensor_id;sensor_type;location;lat;lon;timestamp;temperature;humidity
20200;DHT22;36284;37.236;-121.934;2023-06-10T00:00:30;23.00;99.90
20200;DHT22;36284;37.236;-121.934;2023-06-10T00:02:58;23.40;99.90
20200;DHT22;36284;37.236;-121.934;2023-06-10T00:05:25;23.20;99.90
20200;DHT22;36284;37.236;-121.934;2023-06-10T00:07:56;23.10;99.90
20200;DHT22;36284;37.236;-121.934;2023-06-10T00:10:24;22.70;99.90
20200;DHT22;36284;37.236;-121.934;2023-06-10T00:12:51;22.50;99.90
20200;DHT22;36284;37.236;-121.934;2023-06-10T00:15:18;22.30;99.90
20200;DHT22;36284;37.236;-121.934;2023-06-10T00:17:46;22.60;99.90
20200;DHT22;36284;37.236;-121.934;2023-06-10T00:20:13;22.60;99.90
20200;DHT22;36284;37.236;-121.934;2023-06-10T00:22:40;22.60;99.90
20200;DHT22;36284;37.236;-121.934;2023-06-10T00:25:08;22.60;99.90
20200;DHT22;36284;37.236;-121.934;2023-06-10T00:27:36;22.60;99.90
20200;DHT22;36284;37.236;-121.934;2023-06-10T00:30:04;21.90;99.90
20200;DHT22;36284;37.236;-121.934;2023-06-10T00:32:36;22.00;99.90
20200;DHT22;36284;37.236;-121.934;2023-06-10T00:35:04;22.00;99.90
20200;DHT22;36284;37.236;-121.934;2023-06-10T00:37:32;22.10;99.90
20200;DHT22;36284;37.236;-121.934;2023-06-10T00:40:02;21.60;99.90
20200;DHT22;36284;37.236;-121.934;2023-06-10T00:42:30;22.00;99.90
20200;DHT22;36284;37.236;-121.934;2023-06-10T00:44:56;21.80;99.90
20200;DHT22;36284;37.236;-121.934;2023-06-10T00:47:24;21.80;99.90
20200;DHT22;36284;37.236;-121.934;2023-06-10T00:49:52;21.70;99.90
20200;DHT22;36284;37.236;-121.934;2023-06-10T00:52:20;21.50;99.90
20200;DHT22;36284;37.236;-121.934;2023-06-10T00:54:47;21.60;99.90
20200;DHT22;36284;37.236;-121.934;2023-06-10T00:57:14;21.70;99.90
20200;DHT22;36284;37.236;-121.934;2023-06-10T00:59:45;21.40;99.90
20200;DHT22;36284;37.236;-121.934;2023-06-10T01:02:14;21.50;99.90
20200;DHT22;36284;37.236;-121.934;2023-06-10T01:04:40;21.60;99.90
20200;DHT22;36284;37.236;-121.934;2023-06-10T01:07:31;21.60;99.90
20200;DHT22;36284;37.236;-121.934;2023-06-10T01:10:04;21.00;99.90
20200;DHT22;36284;37.236;-121.934;2023-06-10T01:13:13;21.00;99.90
20200;DHT22;36284;37.236;-121.934;2023-06-10T01:15:34;20.80;99.90
20200;DHT22;36284;37.236;-121.934;2023-06-10T01:18:06;21.20;99.90
20200;DHT22;36284;37.236;-121.934;2023-06-10T01:20:37;21.30;99.90
20200;DHT22;36284;37.236;-121.934;2023-06-10T01:23:07;21.30;99.90
20200;DHT22;36284;37.236;-121.934;2023-06-10T01:25:45;21.40;99.90
20200;DHT22;36284;37.236;-121.934;2023-06-10T01:31:21;20.80;99.90
20200;DHT22;36284;37.236;-121.934;2023-06-10T01:33:52;20.70;99.90
20200;DHT22;36284;37.236;-121.934;2023-06-10T01:36:21;20.90;99.90
20200;DHT22;36284;37.236;-121.934;2023-06-10T01:38:50;20.80;99.90
20200;DHT22;36284;37.236;-121.934;2023-06-10T01:41:20;20.50;99.90
20200;DHT22;36284;37.236;-121.934;2023-06-10T01:43:47;19.90;99.90
20200;DHT22;36284;37.236;-121.934;2023-06-10T01:46:15;19.90;99.90
20200;DHT22;36284;37.236;-121.934;2023-06-10T01:48:46;20.00;99.90
20200;DHT22;36284;37.236;-121.934;2023-06-10T01:51:13;19.80;99.90
20200;DHT22;36284;37.236;-121.934;2023-06-10T01:53:40;19.30;99.90
20200;DHT22;36284;37.236;-121.934;2023-06-10T01:56:07;19.50;99.90
20200;DHT22;36284;37.236;-121.934;2023-06-10T01:58:34;19.40;99.90
20200;DHT22;36284;37.236;-121.934;2023-06-10T02:01:01;19.40;99.90
20200;DHT22;36284;37.236;-121.934;2023-06-10T02:03:28;19.40;99.90
20200;DHT22;36284;37.236;-121.934;2023-06-10T02:05:56;19.30;99.90
20200;DHT22;36284;37.236;-121.934;2023-06-10T02:08:23;19.70;99.90
20200;DHT22;36284;37.236;-121.934;2023-06-10T02:10:50;19.60;99.90
20200;DHT22;36284;37.236;-121.934;2023-06-10T02:13:17;19.30;99.90
20200;DHT22;36284;37.236;-121.934;2023-06-10T02:15:44;19.10;99.90
20200;DHT22;36284;37.236;-121.934;2023-06-10T02:18:12;18.90;99.90
20200;DHT22;36284;37.236;-121.934;2023-06-10T02:20:39;18.60;99.90
20200;DHT22;36284;37.236;-121.934;2023-06-10T02:25:33;18.60;99.90
20200;DHT22;36284;37.236;-121.934;2023-06-10T02:28:00;18.40;99.90
20200;DHT22;36284;37.236;-121.934;2023-06-10T02:30:30;18.50;99.90
20200;DHT22;36284;37.236;-121.934;2023-06-10T02:32:57;18.40;99.90
20200;DHT22;36284;37.236;-121.934;2023-06-10T02:35:25;18.40;99.90
20200;DHT22;36284;37.236;-121.934;2023-06-10T02:37:52;18.40;99.90
20200;DHT22;36284;37.236;-121.934;2023-06-10T02:40:19;18.30;99.90
20200;DHT22;36284;37.236;-121.934;2023-06-10T02:42:47;18.20;99.90
20200;DHT22;36284;37.236;-121.934;2023-06-10T02:45:14;18.40;99.90
20200;DHT22;36284;37.236;-121.934;2023-06-10T02:47:41;18.30;99.90
20200;DHT22;36284;37.236;-121.934;2023-06-10T02:50:09;18.10;99.90
20200;DHT22;36284;37.236;-121.934;2023-06-10T02:52:36;17.70;99.90
20200;DHT22;36284;37.236;-121.934;2023-06-10T02:55:03;17.70;99.90
20200;DHT22;36284;37.236;-121.934;2023-06-10T02:57:30;17.60;99.90
20200;DHT22;36284;37.236;-121.934;2023-06-10T02:59:57;17.50;99.90
20200;DHT22;36284;37.236;-121.934;2023-06-10T03:02:25;17.50;99.90
20200;DHT22;36284;37.236;-121.934;2023-06-10T03:04:55;17.50;99.90
20200;DHT22;36284;37.236;-121.934;2023-06-10T03:07:22;17.50;99.90
20200;DHT22;36284;37.236;-121.934;2023-06-10T03:09:49;17.50;99.90
20200;DHT22;36284;37.236;-121.934;2023-06-10T03:12:16;17.50;99.90
20200;DHT22;36284;37.236;-121.934;2023-06-10T03:14:43;17.40;99.90
20200;DHT22;36284;37.236;-121.934;2023-06-10T03:17:10;17.30;99.90
20200;DHT22;36284;37.236;-121.934;2023-06-10T03:19:38;17.20;99.90
20200;DHT22;36284;37.236;-121.934;2023-06-10T03:22:12;17.20;99.90
20200;DHT22;36284;37.236;-121.934;2023-06-10T03:24:40;17.10;99.90
20200;DHT22;36284;37.236;-121.934;2023-06-10T03:27:11;16.90;99.90
20200;DHT22;36284;37.236;-121.934;2023-06-10T03:29:38;16.80;99.90
20200;DHT22;36284;37.236;-121.934;2023-06-10T03:32:05;16.70;99.90
20200;DHT22;36284;37.236;-121.934;2023-06-10T03:34:32;16.50;99.90
20200;DHT22;36284;37.236;-121.934;2023-06-10T03:37:00;16.50;99.90
20200;DHT22;36284;37.236;-121.934;2023-06-10T03:39:27;16.50;99.90
20200;DHT22;36284;37.236;-121.934;2023-06-10T03:41:55;16.30;99.90
20200;DHT22;36284;37.236;-121.934;2023-06-10T03:44:24;16.30;99.90
20200;DHT22;36284;37.236;-121.934;2023-06-10T03:46:55;16.20;99.90
20200;DHT22;36284;37.236;-121.934;2023-06-10T03:49:22;16.20;99.90
20200;DHT22;36284;37.236;-121.934;2023-06-10T03:51:52;16.10;99.90
20200;DHT22;36284;37.236;-121.934;2023-06-10T03:54:19;16.10;99.90
20200;DHT22;36284;37.236;-121.934;2023-06-10T03:56:46;16.00;99.90
20200;DHT22;36284;37.236;-121.934;2023-06-10T03:59:14;16.00;99.90
20200;DHT22;36284;37.236;-121.934;2023-06-10T04:01:41;15.90;99.90
20200;DHT22;36284;37.236;-121.934;2023-06-10T04:04:11;15.90;99.90
20200;DHT22;36284;37.236;-121.934;2023-06-10T04:06:38;15.70;99.90
20200;DHT22;36284;37.236;-121.934;2023-06-10T04:09:05;15.90;99.90
20200;DHT22;36284;37.236;-121.934;2023-06-10T04:11:32;15.80;99.90
20200;DHT22;36284;37.236;-121.934;2023-06-10T04:13:59;15.80;99.90
20200;DHT22;36284;37.236;-121.934;2023-06-10T04:16:27;15.60;99.90
20200;DHT22;36284;37.236;-121.934;2023-06-10T04:18:54;15.70;99.90
20200;DHT22;36284;37.236;-121.934;2023-06-10T04:21:21;15.60;99.90
20200;DHT22;36284;37.236;-121.934;2023-06-10T04:23:48;15.60;99.90
20200;DHT22;36284;37.236;-121.934;2023-06-10T04:26:15;15.50;99.90
20200;DHT22;36284;37.236;-121.934;2023-06-10T04:28:45;15.60;99.90
20200;DHT22;36284;37.236;-121.934;2023-06-10T04:31:13;15.40;99.90
20200;DHT22;36284;37.236;-121.934;2023-06-10T04:33:40;15.50;99.90
20200;DHT22;36284;37.236;-121.934;2023-06-10T04:36:07;15.40;99.90
20200;DHT22;36284;37.236;-121.934;2023-06-10T04:38:34;15.50;99.90
20200;DHT22;36284;37.236;-121.934;2023-06-10T04:41:00;15.60;99.90
20200;DHT22;36284;37.236;-121.934;2023-06-10T04:43:29;15.70;99.90
20200;DHT22;36284;37.236;-121.934;2023-06-10T04:45:57;15.60;99.90
20200;DHT22;36284;37.236;-121.934;2023-06-10T04:48:23;15.60;99.90
20200;DHT22;36284;37.236;-121.934;2023-06-10T04:50:50;15.60;99.90
20200;DHT22;36284;37.236;-121.934;2023-06-10T04:53:17;15.50;99.90
20200;DHT22;36284;37.236;-121.934;2023-06-10T04:55:45;15.50;99.90
20200;DHT22;36284;37.236;-121.934;2023-06-10T04:58:12;15.50;99.90
20200;DHT22;36284;37.236;-121.934;2023-06-10T05:00:39;15.40;99.90
20200;DHT22;36284;37.236;-121.934;2023-06-10T05:03:06;15.20;99.90
20200;DHT22;36284;37.236;-121.934;2023-06-10T05:05:32;15.40;99.90
20200;DHT22;36284;37.236;-121.934;2023-06-10T05:07:59;15.40;99.90
20200;DHT22;36284;37.236;-121.934;2023-06-10T05:10:26;15.50;99.90
20200;DHT22;36284;37.236;-121.934;2023-06-10T05:12:54;15.60;99.90
20200;DHT22;36284;37.236;-121.934;2023-06-10T05:15:20;15.60;99.90
20200;DHT22;36284;37.236;-121.934;2023-06-10T05:17:47;15.40;99.90
20200;DHT22;36284;37.236;-121.934;2023-06-10T05:20:15;15.40;99.90
20200;DHT22;36284;37.236;-121.934;2023-06-10T05:22:42;15.40;99.90
20200;DHT22;36284;37.236;-121.934;2023-06-10T05:25:09;15.20;99.90
20200;DHT22;36284;37.236;-121.934;2023-06-10T05:27:36;15.20;99.90
20200;DHT22;36284;37.236;-121.934;2023-06-10T05:30:03;15.20;99.90
20200;DHT22;36284;37.236;-121.934;2023-06-10T05:32:31;15.20;99.90
20200;DHT22;36284;37.236;-121.934;2023-06-10T05:34:58;15.30;99.90
20200;DHT22;36284;37.236;-121.934;2023-06-10T05:37:26;15.30;99.90
20200;DHT22;36284;37.236;-121.934;2023-06-10T05:39:53;15.30;99.90
20200;DHT22;36284;37.236;-121.934;2023-06-10T05:42:20;15.00;99.90
20200;DHT22;36284;37.236;-121.934;2023-06-10T05:44:47;15.00;99.90
20200;DHT22;36284;37.236;-121.934;2023-06-10T05:47:14;15.10;99.90
20200;DHT22;36284;37.236;-121.934;2023-06-10T05:49:41;15.10;99.90
20200;DHT22;36284;37.236;-121.934;2023-06-10T05:52:08;15.10;99.90
20200;DHT22;36284;37.236;-121.934;2023-06-10T05:54:35;15.00;99.90
20200;DHT22;36284;37.236;-121.934;2023-06-10T05:57:02;14.90;99.90
20200;DHT22;36284;37.236;-121.934;2023-06-10T05:59:29;14.80;99.90
20200;DHT22;36284;37.236;-121.934;2023-06-10T06:01:56;14.80;99.90
20200;DHT22;36284;37.236;-121.934;2023-06-10T06:04:25;14.90;99.90
20200;DHT22;36284;37.236;-121.934;2023-06-10T06:06:51;14.90;99.90
20200;DHT22;36284;37.236;-121.934;2023-06-10T06:09:18;14.80;99.90
20200;DHT22;36284;37.236;-121.934;2023-06-10T06:11:46;14.80;99.90
20200;DHT22;36284;37.236;-121.934;2023-06-10T06:14:13;14.80;99.90
20200;DHT22;36284;37.236;-121.934;2023-06-10T06:16:40;14.80;99.90
20200;DHT22;36284;37.236;-121.934;2023-06-10T06:19:07;14.80;99.90
20200;DHT22;36284;37.236;-121.934;2023-06-10T06:21:34;14.70;99.90
20200;DHT22;36284;37.236;-121.934;2023-06-10T06:24:01;14.60;99.90
20200;DHT22;36284;37.236;-121.934;2023-06-10T06:26:28;14.50;99.90
20200;DHT22;36284;37.236;-121.934;2023-06-10T06:28:55;14.70;99.90
20200;DHT22;36284;37.236;-121.934;2023-06-10T06:31:22;14.80;99.90
20200;DHT22;36284;37.236;-121.934;2023-06-10T06:33:49;14.60;99.90
20200;DHT22;36284;37.236;-121.934;2023-06-10T06:36:16;14.60;99.90
20200;DHT22;36284;37.236;-121.934;2023-06-10T06:38:43;14.70;99.90
20200;DHT22;36284;37.236;-121.934;2023-06-10T06:41:09;14.70;99.90
20200;DHT22;36284;37.236;-121.934;2023-06-10T06:43:36;14.60;99.90
20200;DHT22;36284;37.236;-121.934;2023-06-10T06:46:03;14.60;99.90
20200;DHT22;36284;37.236;-121.934;2023-06-10T06:48:30;14.70;99.90
20200;DHT22;36284;37.236;-121.934;2023-06-10T06:50:57;14.70;99.90
20200;DHT22;36284;37.236;-121.934;2023-06-10T06:53:24;14.70;99.90
20200;DHT22;36284;37.236;-121.934;2023-06-10T06:55:51;14.60;99.90
20200;DHT22;36284;37.236;-121.934;2023-06-10T06:58:18;14.60;99.90
20200;DHT22;36284;37.236;-121.934;2023-06-10T07:00:45;14.70;99.90
20200;DHT22;36284;37.236;-121.934;2023-06-10T07:03:12;14.60;99.90
20200;DHT22;36284;37.236;-121.934;2023-06-10T07:05:39;14.70;99.90
20200;DHT22;36284;37.236;-121.934;2023-06-10T07:08:06;14.70;99.90
20200;DHT22;36284;37.236;-121.934;2023-06-10T07:10:33;14.60;99.90
20200;DHT22;36284;37.236;-121.934;2023-06-10T07:13:00;14.50;99.90
20200;DHT22;36284;37.236;-121.934;2023-06-10T07:15:27;14.50;99.90
20200;DHT22;36284;37.236;-121.934;2023-06-10T07:17:54;14.40;99.90
20200;DHT22;36284;37.236;-121.934;2023-06-10T07:20:21;14.40;99.90
20200;DHT22;36284;37.236;-121.934;2023-06-10T07:25:16;14.30;99.90
20200;DHT22;36284;37.236;-121.934;2023-06-10T07:27:43;14.40;99.90
20200;DHT22;36284;37.236;-121.934;2023-06-10T07:30:10;14.20;99.90
20200;DHT22;36284;37.236;-121.934;2023-06-10T07:32:37;14.30;99.90
20200;DHT22;36284;37.236;-121.934;2023-06-10T07:35:08;14.30;99.90
20200;DHT22;36284;37.236;-121.934;2023-06-10T07:37:35;14.30;99.90
20200;DHT22;36284;37.236;-121.934;2023-06-10T07:40:03;14.20;99.90
20200;DHT22;36284;37.236;-121.934;2023-06-10T07:42:31;14.20;99.90
20200;DHT22;36284;37.236;-121.934;2023-06-10T07:44:58;14.30;99.90
20200;DHT22;36284;37.236;-121.934;2023-06-10T07:47:25;14.30;99.90
20200;DHT22;36284;37.236;-121.934;2023-06-10T07:49:52;14.30;99.90
20200;DHT22;36284;37.236;-121.934;2023-06-10T07:52:19;14.30;99.90
20200;DHT22;36284;37.236;-121.934;2023-06-10T07:54:46;14.30;99.90
20200;DHT22;36284;37.236;-121.934;2023-06-10T07:57:13;14.40;99.90
20200;DHT22;36284;37.236;-121.934;2023-06-10T07:59:40;14.50;99.90
20200;DHT22;36284;37.236;-121.934;2023-06-10T08:02:07;14.40;99.90
20200;DHT22;36284;37.236;-121.934;2023-06-10T08:04:34;14.20;99.90
20200;DHT22;36284;37.236;-121.934;2023-06-10T08:07:02;14.20;99.90
20200;DHT22;36284;37.236;-121.934;2023-06-10T08:09:29;14.20;99.90
20200;DHT22;36284;37.236;-121.934;2023-06-10T08:11:56;14.20;99.90
20200;DHT22;36284;37.236;-121.934;2023-06-10T08:14:23;14.10;99.90
20200;DHT22;36284;37.236;-121.934;2023-06-10T08:16:50;14.30;99.90
20200;DHT22;36284;37.236;-121.934;2023-06-10T08:19:17;14.30;99.90
20200;DHT22;36284;37.236;-121.934;2023-06-10T08:21:44;14.20;99.90
20200;DHT22;36284;37.236;-121.934;2023-06-10T08:24:11;14.20;99.90
20200;DHT22;36284;37.236;-121.934;2023-06-10T08:26:38;14.30;99.90
20200;DHT22;36284;37.236;-121.934;2023-06-10T08:29:05;14.30;99.90
20200;DHT22;36284;37.236;-121.934;2023-06-10T08:31:32;14.30;99.90
20200;DHT22;36284;37.236;-121.934;2023-06-10T08:33:59;14.10;99.90
20200;DHT22;36284;37.236;-121.934;2023-06-10T08:36:26;14.10;99.90
20200;DHT22;36284;37.236;-121.934;2023-06-10T08:38:53;14.10;99.90
20200;DHT22;36284;37.236;-121.934;2023-06-10T08:41:21;14.30;99.90
20200;DHT22;36284;37.236;-121.934;2023-06-10T08:44:03;14.20;99.90
20200;DHT22;36284;37.236;-121.934;2023-06-10T08:46:34;14.20;99.90
20200;DHT22;36284;37.236;-121.934;2023-06-10T08:49:06;14.10;99.90
20200;DHT22;36284;37.236;-121.934;2023-06-10T08:51:35;14.20;99.90
20200;DHT22;36284;37.236;-121.934;2023-06-10T08:54:10;14.10;99.90
20200;DHT22;36284;37.236;-121.934;2023-06-10T08:56:40;14.10;99.90
20200;DHT22;36284;37.236;-121.934;2023-06-10T08:59:08;14.20;99.90
20200;DHT22;36284;37.236;-121.934;2023-06-10T09:01:36;14.20;99.90
20200;DHT22;36284;37.236;-121.934;2023-06-10T09:04:05;14.20;99.90
20200;DHT22;36284;37.236;-121.934;2023-06-10T09:06:33;14.20;99.90
20200;DHT22;36284;37.236;-121.934;2023-06-10T09:09:00;14.10;99.90
20200;DHT22;36284;37.236;-121.934;2023-06-10T09:11:27;14.10;99.90
20200;DHT22;36284;37.236;-121.934;2023-06-10T09:13:56;14.10;99.90
20200;DHT22;36284;37.236;-121.934;2023-06-10T09:16:25;14.10;99.90
20200;DHT22;36284;37.236;-121.934;2023-06-10T09:18:52;14.10;99.90
20200;DHT22;36284;37.236;-121.934;2023-06-10T09:21:25;14.10;99.90
20200;DHT22;36284;37.236;-121.934;2023-06-10T09:23:52;14.10;99.90
20200;DHT22;36284;37.236;-121.934;2023-06-10T09:26:19;14.20;99.90
20200;DHT22;36284;37.236;-121.934;2023-06-10T09:28:50;14.20;99.90
20200;DHT22;36284;37.236;-121.934;2023-06-10T09:31:17;14.30;99.90
20200;DHT22;36284;37.236;-121.934;2023-06-10T09:33:48;14.30;99.90
20200;DHT22;36284;37.236;-121.934;2023-06-10T09:36:24;14.20;99.90
20200;DHT22;36284;37.236;-121.934;2023-06-10T09:38:52;14.10;99.90
20200;DHT22;36284;37.236;-121.934;2023-06-10T09:41:19;14.10;99.90
20200;DHT22;36284;37.236;-121.934;2023-06-10T09:43:46;14.10;99.90
20200;DHT22;36284;37.236;-121.934;2023-06-10T09:46:16;14.10;99.90
20200;DHT22;36284;37.236;-121.934;2023-06-10T09:48:44;14.00;99.90
20200;DHT22;36284;37.236;-121.934;2023-06-10T09:51:13;14.10;99.90
20200;DHT22;36284;37.236;-121.934;2023-06-10T09:53:40;14.00;99.90
20200;DHT22;36284;37.236;-121.934;2023-06-10T09:56:07;14.10;99.90
20200;DHT22;36284;37.236;-121.934;2023-06-10T09:58:38;14.20;99.90
20200;DHT22;36284;37.236;-121.934;2023-06-10T10:01:08;14.20;99.90
20200;DHT22;36284;37.236;-121.934;2023-06-10T10:03:50;14.10;99.90
20200;DHT22;36284;37.236;-121.934;2023-06-10T10:06:19;14.20;99.90
20200;DHT22;36284;37.236;-121.934;2023-06-10T10:08:50;14.20;99.90
20200;DHT22;36284;37.236;-121.934;2023-06-10T10:11:19;14.20;99.90
20200;DHT22;36284;37.236;-121.934;2023-06-10T10:13:49;14.10;99.90
20200;DHT22;36284;37.236;-121.934;2023-06-10T10:16:31;14.20;99.90
20200;DHT22;36284;37.236;-121.934;2023-06-10T10:19:07;14.30;99.90
20200;DHT22;36284;37.236;-121.934;2023-06-10T10:21:39;14.20;99.90
20200;DHT22;36284;37.236;-121.934;2023-06-10T10:24:33;14.20;99.90
20200;DHT22;36284;37.236;-121.934;2023-06-10T10:27:07;14.20;99.90
20200;DHT22;36284;37.236;-121.934;2023-06-10T10:29:39;14.20;99.90
20200;DHT22;36284;37.236;-121.934;2023-06-10T10:32:10;14.20;99.90
20200;DHT22;36284;37.236;-121.934;2023-06-10T10:37:33;14.20;99.90
20200;DHT22;36284;37.236;-121.934;2023-06-10T10:40:02;14.20;99.90
20200;DHT22;36284;37.236;-121.934;2023-06-10T10:42:30;14.10;99.90
20200;DHT22;36284;37.236;-121.934;2023-06-10T10:44:59;14.10;99.90
20200;DHT22;36284;37.236;-121.934;2023-06-10T10:47:27;14.20;99.90
20200;DHT22;36284;37.236;-121.934;2023-06-10T10:49:57;14.20;99.90
20200;DHT22;36284;37.236;-121.934;2023-06-10T10:52:28;14.10;99.90
20200;DHT22;36284;37.236;-121.934;2023-06-10T10:55:13;14.20;99.90
20200;DHT22;36284;37.236;-121.934;2023-06-10T10:57:40;14.20;99.90
20200;DHT22;36284;37.236;-121.934;2023-06-10T11:00:07;14.20;99.90
20200;DHT22;36284;37.236;-121.934;2023-06-10T11:02:43;14.20;99.90
20200;DHT22;36284;37.236;-121.934;2023-06-10T11:05:15;14.10;99.90
20200;DHT22;36284;37.236;-121.934;2023-06-10T11:07:53;14.20;99.90
20200;DHT22;36284;37.236;-121.934;2023-06-10T11:10:31;14.10;99.90
20200;DHT22;36284;37.236;-121.934;2023-06-10T11:12:59;14.20;99.90
20200;DHT22;36284;37.236;-121.934;2023-06-10T11:15:29;14.30;99.90
20200;DHT22;36284;37.236;-121.934;2023-06-10T11:18:26;14.20;99.90
20200;DHT22;36284;37.236;-121.934;2023-06-10T11:21:02;14.20;99.90
20200;DHT22;36284;37.236;-121.934;2023-06-10T11:29:04;14.00;99.90
20200;DHT22;36284;37.236;-121.934;2023-06-10T11:31:40;14.00;99.90
20200;DHT22;36284;37.236;-121.934;2023-06-10T11:34:07;13.90;99.90
20200;DHT22;36284;37.236;-121.934;2023-06-10T11:36:40;13.90;99.90
20200;DHT22;36284;37.236;-121.934;2023-06-10T11:39:10;14.00;99.90
20200;DHT22;36284;37.236;-121.934;2023-06-10T11:41:39;14.10;99.90
20200;DHT22;36284;37.236;-121.934;2023-06-10T11:44:11;14.10;99.90
20200;DHT22;36284;37.236;-121.934;2023-06-10T11:46:39;14.10;99.90
20200;DHT22;36284;37.236;-121.934;2023-06-10T11:49:06;14.20;99.90
20200;DHT22;36284;37.236;-121.934;2023-06-10T11:51:35;14.20;99.90
20200;DHT22;36284;37.236;-121.934;2023-06-10T11:54:03;14.10;99.90
20200;DHT22;36284;37.236;-121.934;2023-06-10T11:56:31;14.00;99.90
20200;DHT22;36284;37.236;-121.934;2023-06-10T11:59:02;14.00;99.90
20200;DHT22;36284;37.236;-121.934;2023-06-10T12:01:33;14.10;99.90
20200;DHT22;36284;37.236;-121.934;2023-06-10T12:04:05;14.00;99.90
20200;DHT22;36284;37.236;-121.934;2023-06-10T12:06:54;14.00;99.90
20200;DHT22;36284;37.236;-121.934;2023-06-10T12:09:29;14.00;99.90
20200;DHT22;36284;37.236;-121.934;2023-06-10T12:12:01;14.10;99.90
20200;DHT22;36284;37.236;-121.934;2023-06-10T12:14:56;14.10;99.90
20200;DHT22;36284;37.236;-121.934;2023-06-10T12:20:03;14.00;99.90
20200;DHT22;36284;37.236;-121.934;2023-06-10T12:22:57;14.00;99.90
20200;DHT22;36284;37.236;-121.934;2023-06-10T12:25:30;14.10;99.90
20200;DHT22;36284;37.236;-121.934;2023-06-10T12:27:58;14.00;99.90
20200;DHT22;36284;37.236;-121.934;2023-06-10T12:30:26;14.00;99.90
20200;DHT22;36284;37.236;-121.934;2023-06-10T12:32:54;14.10;99.90
20200;DHT22;36284;37.236;-121.934;2023-06-10T12:35:23;14.00;99.90
20200;DHT22;36284;37.236;-121.934;2023-06-10T12:38:06;14.00;99.90
20200;DHT22;36284;37.236;-121.934;2023-06-10T12:40:36;14.00;99.90
20200;DHT22;36284;37.236;-121.934;2023-06-10T12:43:05;14.00;99.90
20200;DHT22;36284;37.236;-121.934;2023-06-10T12:45:34;14.00;99.90
20200;DHT22;36284;37.236;-121.934;2023-06-10T12:48:19;14.00;99.90
20200;DHT22;36284;37.236;-121.934;2023-06-10T12:50:54;14.00;99.90
20200;DHT22;36284;37.236;-121.934;2023-06-10T12:53:23;14.00;99.90
20200;DHT22;36284;37.236;-121.934;2023-06-10T12:55:51;14.00;99.90
20200;DHT22;36284;37.236;-121.934;2023-06-10T12:58:22;14.10;99.90
20200;DHT22;36284;37.236;-121.934;2023-06-10T13:00:49;14.10;99.90
20200;DHT22;36284;37.236;-121.934;2023-06-10T13:03:19;14.20;99.90
20200;DHT22;36284;37.236;-121.934;2023-06-10T13:05:47;14.20;99.90
20200;DHT22;36284;37.236;-121.934;2023-06-10T13:08:14;14.10;99.90
20200;DHT22;36284;37.236;-121.934;2023-06-10T13:10:42;14.20;99.90
20200;DHT22;36284;37.236;-121.934;2023-06-10T13:13:09;14.00;99.90
20200;DHT22;36284;37.236;-121.934;2023-06-10T13:15:36;14.00;99.90
20200;DHT22;36284;37.236;-121.934;2023-06-10T13:18:04;13.90;99.90
20200;DHT22;36284;37.236;-121.934;2023-06-10T13:20:31;13.90;99.90
20200;DHT22;36284;37.236;-121.934;2023-06-10T13:22:58;14.00;99.90
20200;DHT22;36284;37.236;-121.934;2023-06-10T13:25:25;14.00;99.90
20200;DHT22;36284;37.236;-121.934;2023-06-10T13:27:52;14.10;99.90
20200;DHT22;36284;37.236;-121.934;2023-06-10T13:30:19;14.10;99.90
20200;DHT22;36284;37.236;-121.934;2023-06-10T13:32:46;14.10;99.90
20200;DHT22;36284;37.236;-121.934;2023-06-10T13:35:13;14.10;99.90
20200;DHT22;36284;37.236;-121.934;2023-06-10T13:37:40;14.20;99.90
20200;DHT22;36284;37.236;-121.934;2023-06-10T13:40:07;14.20;99.90
20200;DHT22;36284;37.236;-121.934;2023-06-10T13:42:36;14.10;99.90
20200;DHT22;36284;37.236;-121.934;2023-06-10T13:45:04;14.20;99.90
20200;DHT22;36284;37.236;-121.934;2023-06-10T13:47:31;14.00;99.90
20200;DHT22;36284;37.236;-121.934;2023-06-10T13:49:58;14.00;99.90
20200;DHT22;36284;37.236;-121.934;2023-06-10T13:52:25;14.00;99.90
20200;DHT22;36284;37.236;-121.934;2023-06-10T13:54:52;14.00;99.90
20200;DHT22;36284;37.236;-121.934;2023-06-10T13:57:19;14.10;99.90
20200;DHT22;36284;37.236;-121.934;2023-06-10T13:59:46;14.10;99.90
20200;DHT22;36284;37.236;-121.934;2023-06-10T14:02:13;14.10;99.90
20200;DHT22;36284;37.236;-121.934;2023-06-10T14:04:39;14.20;99.90
20200;DHT22;36284;37.236;-121.934;2023-06-10T14:07:06;14.20;99.90
20200;DHT22;36284;37.236;-121.934;2023-06-10T14:09:33;14.10;99.90
20200;DHT22;36284;37.236;-121.934;2023-06-10T14:12:00;14.10;99.90
20200;DHT22;36284;37.236;-121.934;2023-06-10T14:14:29;14.20;99.90
20200;DHT22;36284;37.236;-121.934;2023-06-10T14:16:56;14.30;99.90
20200;DHT22;36284;37.236;-121.934;2023-06-10T14:19:23;14.30;99.90
20200;DHT22;36284;37.236;-121.934;2023-06-10T14:21:50;14.30;99.90
20200;DHT22;36284;37.236;-121.934;2023-06-10T14:24:19;14.50;99.90
20200;DHT22;36284;37.236;-121.934;2023-06-10T14:26:46;14.60;99.90
20200;DHT22;36284;37.236;-121.934;2023-06-10T14:29:13;14.60;99.90
20200;DHT22;36284;37.236;-121.934;2023-06-10T14:31:41;14.70;99.90
20200;DHT22;36284;37.236;-121.934;2023-06-10T14:34:07;14.50;99.90
20200;DHT22;36284;37.236;-121.934;2023-06-10T14:36:35;14.60;99.90
20200;DHT22;36284;37.236;-121.934;2023-06-10T14:39:02;14.50;99.90
20200;DHT22;36284;37.236;-121.934;2023-06-10T14:41:29;14.60;99.90
20200;DHT22;36284;37.236;-121.934;2023-06-10T14:43:56;14.60;99.90
20200;DHT22;36284;37.236;-121.934;2023-06-10T14:46:23;14.50;99.90
20200;DHT22;36284;37.236;-121.934;2023-06-10T14:48:50;14.50;99.90
20200;DHT22;36284;37.236;-121.934;2023-06-10T14:51:20;14.50;99.90
20200;DHT22;36284;37.236;-121.934;2023-06-10T14:53:47;14.50;99.90
20200;DHT22;36284;37.236;-121.934;2023-06-10T14:56:14;14.60;99.90
20200;DHT22;36284;37.236;-121.934;2023-06-10T14:58:41;14.60;99.90
20200;DHT22;36284;37.236;-121.934;2023-06-10T15:01:08;14.50;99.90
20200;DHT22;36284;37.236;-121.934;2023-06-10T15:03:35;14.40;99.90
20200;DHT22;36284;37.236;-121.934;2023-06-10T15:06:02;14.60;99.90
20200;DHT22;36284;37.236;-121.934;2023-06-10T15:08:29;14.60;99.90
20200;DHT22;36284;37.236;-121.934;2023-06-10T15:10:56;14.60;99.90
20200;DHT22;36284;37.236;-121.934;2023-06-10T15:13:23;14.60;99.90
20200;DHT22;36284;37.236;-121.934;2023-06-10T15:15:50;14.50;99.90